CDG weather

Charles de Gaulle International Airport
Paris, Île-de-France, France

Public forecast

Using degrees Celsius for public forecast. Weather courtesy of forecast.io.

METAR (pilot weather report)

Retrieved 2017/02/24 14:30 UTC (17 minutes ago):

LFPG 241430Z 31015KT 280V340 9999 FEW040 SCT260 09/M00 Q1017 TEMPO 4000 -SHRA SCT025 TCU

TAF (pilot weather forecast)

Retrieved 2017/02/24 12:20 UTC (2 hours ago):

TAF LFPG 241100Z 2412/2518 31010KT 9999 SCT020 PROB40 TEMPO 2412/2415 4000 -SHRA BKN025TCU PROB30 TEMPO 2412/2414 -GS BECMG 2423/2501 20003KT PROB30 TEMPO 2503/2506 4000 BR TX11/2515Z TN00/2506Z